Tumbarumba, New South Wales

6:50 PM AEST on July 24, 2016 (GMT +1000)
Bago Forest Road | | Change Station

Elev 2425 ft 35.70 °S, 148.06 °E | Updated 8 seconds ago

Overcast
Overcast
36.5 °F
Feels Like 36 °F
N
0.0
Wind Variable Wind from NNE
Gusts 0.0 mph

Today
High -- | Low -- °F
--% Chance of Precip.
Yesterday
High -- | Low -- °F
Precip. -- in
Pressure 29.80 in
Visibility 3.7 miles
Clouds Scattered Clouds 600 ft
Mostly Cloudy 1200 ft
Overcast 1900 ft
Windchill 36 °F
Dew Point 32 °F
Humidity 84%
Rainfall 0.00 in
Snow Depth Not available.
7:10 AM 5:19 PM
Waning Gibbous, 78% visible
SPECI YMAY 240830Z AUTO 19011KT 190V310 6000 // SCT006 BKN012 OVC019 07/07 Q1009
Pressure 29.80 in
Visibility 3.7 miles
Clouds Scattered Clouds 600 ft
Mostly Cloudy 1200 ft
Overcast 1900 ft
Windchill 36 °F
Dew Point 32 °F
Humidity 84%
Rainfall 0.00 in
Snow Depth Not available.
7:10 AM 5:19 PM
Waning Gibbous, 78% visible
SPECI YMAY 240830Z AUTO 19011KT 190V310 6000 // SCT006 BKN012 OVC019 07/07 Q1009

10-Day Weather Forecast

Almanac

Astronomy

Jul. 24, 2016 Rise Set
Actual Time
Civil Twilight
Nautical Twilight
Astronomical Twilight
Moon
Length of Visible Light
Length of Day
Tomorrow will be .
, % of the Moon is Illuminated

Today's Extremes

Country Highs Country Lows

Community

WunderPhotos

Upload Photos

1,927,041 photos uploaded!

WunderBlog® & News

Nearby

Air Quality

  Air Quality AQ Index Pollutant
Not available.

Snow Depth

Station Depth Elevation

Earthquake Activity

City Distance Mag. Time & Date
Minimum magnitude displayed is 2.5.

Coastal Water Temperatures

Place Temperature

Stations

Nearby Weather Stations

Station Location Temp. Windchill Dew Point Humidity Wind Precip. Elev Updated Type